Time;durP1;ratioP1;P1;durP2;ratioP2;P2;SDS_P1;SDS_P2;PMS_P1;PMS_P2;Temp;Humidity;BMP_temperature;BMP_pressure;BME280_temperature;BME280_humidity;BME280_pressure;Samples;Min_cycle;Max_cycle;Signal;HPM_P1;HPM_P2
2023/03/05 00:09:04;;;;;;;3.10;0.90;;;;;;;17.05;46.92;101742.66;20441319;28;20036;-89
2023/03/05 00:19:06;;;;;;;1.50;0.63;;;;;;;16.79;47.04;101694.22;20428844;28;20040;-91
2023/03/05 00:29:08;;;;;;;1.73;0.70;;;;;;;17.05;47.01;101731.03;20438488;28;20044;-91
2023/03/05 00:39:11;;;;;;;2.13;0.80;;;;;;;17.04;46.86;101721.22;20322276;29;20048;-89
2023/03/05 00:49:13;;;;;;;1.80;0.70;;;;;;;16.83;46.82;101678.75;20325865;29;20064;-89
2023/03/05 00:59:14;;;;;;;2.35;0.80;;;;;;;17.02;46.93;101693.59;20320215;29;20052;-90
2023/03/05 01:09:16;;;;;;;0.85;0.40;;;;;;;16.86;47.00;101658.81;20326349;29;20122;-89
2023/03/05 01:19:21;;;;;;;1.38;0.70;;;;;;;17.01;46.82;101673.88;20392789;29;20059;-90
2023/03/05 01:29:27;;;;;;;1.33;0.57;;;;;;;16.79;46.98;101629.69;20339775;29;20063;-90
2023/03/05 01:39:28;;;;;;;1.08;0.47;;;;;;;16.92;47.09;101629.66;20312177;29;20059;-91
2023/03/05 01:49:34;;;;;;;1.35;0.47;;;;;;;17.00;46.81;101631.81;20284294;29;20059;-89
2023/03/05 01:59:37;;;;;;;2.08;0.90;;;;;;;17.00;46.80;101618.34;20302932;29;20589;-90
2023/03/05 02:09:40;;;;;;;1.25;0.60;;;;;;;16.98;46.69;101606.00;20295286;29;20055;-90
2023/03/05 02:19:51;;;;;;;1.10;0.50;;;;;;;16.92;46.74;101588.44;20294604;29;20520;-92
2023/03/05 02:29:52;;;;;;;2.15;0.60;;;;;;;16.98;46.68;101581.81;20313475;29;20405;-90
2023/03/05 02:39:54;;;;;;;1.27;0.65;;;;;;;16.97;46.77;101564.75;20308414;29;20143;-90
2023/03/05 02:49:56;;;;;;;1.55;0.73;;;;;;;16.67;46.76;101512.28;20296096;29;20123;-90
2023/03/05 02:59:57;;;;;;;0.82;0.43;;;;;;;16.87;46.38;101529.66;20298732;29;20090;-90
2023/03/05 03:10:03;;;;;;;1.65;0.60;;;;;;;16.86;46.69;101517.16;20325611;29;20052;-89
2023/03/05 03:20:09;;;;;;;1.52;0.50;;;;;;;16.95;46.44;101511.09;20308950;29;20501;-90
2023/03/05 03:30:12;;;;;;;0.77;0.57;;;;;;;16.95;46.62;101508.41;20258392;29;20611;-90
2023/03/05 03:40:13;;;;;;;1.15;0.65;;;;;;;16.94;46.46;101495.94;20248933;29;20485;-89
2023/03/05 03:50:16;;;;;;;2.22;0.52;;;;;;;16.94;46.44;101482.47;20239151;29;20060;-90
2023/03/05 04:00:18;;;;;;;0.80;0.52;;;;;;;16.46;46.28;101399.16;20243809;29;20052;-90
2023/03/05 04:10:19;;;;;;;1.05;0.40;;;;;;;16.94;46.52;101471.72;20212377;29;20053;-90
2023/03/05 04:20:21;;;;;;;1.08;0.55;;;;;;;16.93;46.40;101459.25;20255197;29;20063;-90
2023/03/05 04:30:22;;;;;;;0.93;0.40;;;;;;;16.93;46.45;101445.81;20319054;29;20048;-90
2023/03/05 04:40:25;;;;;;;1.00;0.50;;;;;;;16.93;46.51;101437.72;20301743;29;20055;-90
2023/03/05 04:50:28;;;;;;;0.80;0.40;;;;;;;16.73;46.42;101400.72;20307303;29;20052;-89
2023/03/05 05:00:29;;;;;;;1.50;0.52;;;;;;;16.92;46.28;101438.72;20296712;29;20107;-89
2023/03/05 05:10:31;;;;;;;1.00;0.50;;;;;;;16.91;46.37;101431.63;20298908;29;20422;-90
2023/03/05 05:20:33;;;;;;;1.33;0.47;;;;;;;16.70;46.25;101393.78;20297750;29;20083;-89
2023/03/05 05:30:34;;;;;;;1.00;0.50;;;;;;;16.92;46.52;101419.00;20287334;29;20063;-90
2023/03/05 05:40:36;;;;;;;0.43;0.40;;;;;;;16.81;46.20;101404.56;20311113;29;20084;-89
2023/03/05 05:50:38;;;;;;;0.60;0.30;;;;;;;16.90;46.37;101413.78;20298152;29;20580;-90
2023/03/05 06:00:39;;;;;;;1.17;0.35;;;;;;;16.59;46.24;101362.31;20283090;29;20483;-89
2023/03/05 06:10:41;;;;;;;0.85;0.40;;;;;;;16.90;46.33;101424.53;20296646;29;20413;-91
2023/03/05 06:20:44;;;;;;;1.35;0.50;;;;;;;16.89;46.16;101412.06;20340089;29;20080;-83
2023/03/05 06:30:45;;;;;;;1.20;0.40;;;;;;;16.80;46.06;101386.72;20387955;29;20052;-91
2023/03/05 06:40:47;;;;;;;1.27;0.30;;;;;;;16.89;46.81;101390.53;20327905;29;20528;-92
2023/03/05 06:50:52;;;;;;;2.40;0.60;;;;;;;16.91;48.17;101393.97;20319648;29;20056;-92
2023/03/05 07:00:54;;;;;;;3.25;1.23;;;;;;;16.24;49.64;101274.47;20304065;29;20127;-93
2023/03/05 07:10:55;;;;;;;3.20;0.88;;;;;;;16.93;50.99;101381.25;20315500;29;20135;-92
2023/03/05 07:21:02;;;;;;;1.73;0.50;;;;;;;16.93;51.59;101375.88;20316030;29;20450;-87
2023/03/05 07:31:11;;;;;;;2.15;0.77;;;;;;;17.00;53.21;101370.06;20326833;29;20059;-87
2023/03/05 07:41:22;;;;;;;0.90;0.50;;;;;;;17.23;53.34;101365.56;20372052;29;20054;-87
2023/03/05 07:51:27;;;;;;;0.88;0.40;;;;;;;17.31;52.24;101355.06;20378661;29;20055;-86
2023/03/05 08:01:30;;;;;;;0.80;0.40;;;;;;;17.46;51.37;101361.06;20235795;29;20052;-86
2023/03/05 08:11:34;;;;;;;0.93;0.40;;;;;;;17.57;51.03;101343.19;20290939;29;20151;-89
2023/03/05 08:21:36;;;;;;;1.42;0.43;;;;;;;17.76;51.05;101358.72;20291509;29;20055;-88
2023/03/05 08:31:41;;;;;;;0.40;0.30;;;;;;;17.65;51.21;101335.34;20290398;29;20049;-89
2023/03/05 08:41:45;;;;;;;1.45;0.50;;;;;;;17.49;50.65;101296.22;20270564;29;20059;-92
2023/03/05 08:51:47;;;;;;;0.82;0.38;;;;;;;17.43;50.70;101299.41;20264182;29;20401;-92
2023/03/05 09:01:49;;;;;;;0.93;0.50;;;;;;;17.68;50.48;101340.50;20274999;29;20412;-91
2023/03/05 09:11:51;;;;;;;1.38;0.45;;;;;;;17.71;53.76;101339.38;20283732;29;20504;-86
2023/03/05 09:21:55;;;;;;;3.08;1.08;;;;;;;17.63;54.10;101316.63;20271214;29;20048;-93
2023/03/05 09:31:57;;;;;;;3.10;1.13;;;;;;;17.54;53.96;101302.06;20276390;29;20067;-85
2023/03/05 09:42:23;;;;;;;3.20;0.70;;;;;;;17.47;53.76;101298.16;20265848;29;20330;-84
2023/03/05 09:52:38;;;;;;;1.88;0.60;;;;;;;17.41;53.05;101290.59;20264586;29;20134;-83
2023/03/05 10:02:47;;;;;;;1.67;0.60;;;;;;;17.38;52.40;101285.47;20254644;29;20051;-82
2023/03/05 10:12:56;;;;;;;2.45;0.60;;;;;;;17.33;51.96;101276.91;20270489;29;20100;-83
2023/03/05 10:23:07;;;;;;;2.25;1.00;;;;;;;17.37;52.10;101252.28;20290583;29;20123;-91
2023/03/05 10:33:11;;;;;;;1.75;0.50;;;;;;;17.43;51.69;101247.38;20311319;23;20055;-88
2023/03/05 10:43:36;;;;;;;2.23;0.40;;;;;;;17.46;51.56;101258.78;20261015;29;20056;-89
2023/03/05 10:54:10;;;;;;;0.77;0.43;;;;;;;17.47;51.15;101241.63;20284918;29;20068;-96
2023/03/05 11:04:28;;;;;;;0.98;0.45;;;;;;;17.49;50.74;101222.69;20353833;29;20048;-92
2023/03/05 11:14:32;;;;;;;1.67;0.57;;;;;;;17.26;50.36;101193.13;20355126;29;20180;-95
2023/03/05 11:24:33;;;;;;;1.35;0.68;;;;;;;17.36;50.19;101188.69;20301588;29;20065;-84
2023/03/05 11:34:35;;;;;;;1.00;0.65;;;;;;;17.53;50.43;101197.22;20280290;29;20102;-92
2023/03/05 11:44:52;;;;;;;1.92;0.40;;;;;;;17.48;50.06;101180.59;20403570;29;20473;-91
2023/03/05 11:54:53;;;;;;;2.00;0.60;;;;;;;17.41;49.82;101150.63;20385704;29;20457;-91
2023/03/05 12:04:58;;;;;;;1.45;0.47;;;;;;;17.24;49.28;101107.16;20402504;29;20052;-92
2023/03/05 12:15:45;;;;;;;1.97;0.60;;;;;;;17.32;49.15;101105.66;20343114;29;20056;-91
2023/03/05 12:25:56;;;;;;;0.82;0.30;;;;;;;17.06;48.77;101062.91;20306605;29;20151;-92
2023/03/05 12:36:16;;;;;;;1.65;0.40;;;;;;;17.27;48.62;101080.97;20320836;29;20523;-91
2023/03/05 12:46:25;;;;;;;0.95;0.38;;;;;;;17.09;48.72;101068.03;20320249;29;20048;-91
2023/03/05 12:56:29;;;;;;;1.88;0.30;;;;;;;17.16;48.27;101045.03;20320500;29;20048;-92
2023/03/05 13:06:33;;;;;;;0.25;0.25;;;;;;;17.11;48.22;101041.88;20302857;29;20044;-91
2023/03/05 13:16:38;;;;;;;1.58;0.40;;;;;;;17.12;48.21;101040.88;20301345;29;20084;-90
2023/03/05 13:26:39;;;;;;;;;;;;;;;17.20;48.29;101035.72;20301339;29;20163;-90
2023/03/05 13:36:46;;;;;;;1.48;0.50;;;;;;;17.03;48.37;100980.66;20300733;29;19927;-90
2023/03/05 13:46:47;;;;;;;0.80;0.30;;;;;;;17.17;48.26;101006.38;20316355;29;20056;-92
2023/03/05 13:56:57;;;;;;;2.03;0.50;;;;;;;17.17;48.03;100995.63;20297507;29;20055;-91
2023/03/05 14:07:07;;;;;;;1.83;0.50;;;;;;;17.16;47.75;100976.94;20299250;29;20059;-92
2023/03/05 14:17:36;;;;;;;1.23;0.52;;;;;;;17.15;47.87;100976.06;20204054;29;20135;-91
2023/03/05 14:27:37;;;;;;;0.98;0.40;;;;;;;17.14;47.62;100968.16;20234980;29;20057;-90
2023/03/05 14:37:41;;;;;;;1.48;0.50;;;;;;;17.08;47.18;100926.47;20237843;29;20059;-91
2023/03/05 14:47:46;;;;;;;0.60;0.32;;;;;;;16.90;47.31;100901.94;20209136;29;20051;-92
2023/03/05 14:57:50;;;;;;;0.93;0.40;;;;;;;16.84;46.91;100876.47;20245598;29;20047;-90
2023/03/05 15:07:51;;;;;;;1.02;0.40;;;;;;;17.12;46.89;100922.53;20274033;29;20043;-92
2023/03/05 15:17:54;;;;;;;0.98;0.40;;;;;;;16.84;46.75;100846.88;20331345;29;20144;-92
2023/03/05 15:27:56;;;;;;;1.00;0.30;;;;;;;17.12;46.77;100884.88;20288491;29;20052;-91
2023/03/05 15:38:00;;;;;;;1.58;0.40;;;;;;;17.12;46.69;100870.59;20298387;29;20048;-95
2023/03/05 15:48:02;;;;;;;0.52;0.30;;;;;;;17.09;47.04;100858.25;20265711;29;20051;-92
2023/03/05 15:58:03;;;;;;;0.93;0.30;;;;;;;17.10;47.29;100835.72;20298800;29;20062;-92
2023/03/05 16:08:06;;;;;;;1.90;0.45;;;;;;;17.30;47.21;100846.63;20298263;29;20056;-92
2023/03/05 16:18:11;;;;;;;0.73;0.30;;;;;;;17.02;47.36;100779.06;20294044;29;20064;-93
2023/03/05 16:28:13;;;;;;;0.83;0.30;;;;;;;17.37;47.50;100818.19;20256968;29;20052;-94
2023/03/05 16:38:14;;;;;;;1.02;0.20;;;;;;;17.29;47.23;100804.56;20271845;29;20051;-95
2023/03/05 16:48:16;;;;;;;1.75;0.40;;;;;;;17.29;47.25;100794.63;20279613;29;20059;-90
2023/03/05 16:58:17;;;;;;;0.80;0.28;;;;;;;17.40;47.32;100802.59;20292715;29;20056;-91
2023/03/05 17:08:20;;;;;;;1.30;0.40;;;;;;;17.31;47.31;100775.69;20256241;29;20051;-94
2023/03/05 17:18:24;;;;;;;;;;;;;;;17.43;47.18;100784.47;20295498;29;20044;-94
2023/03/05 17:28:30;;;;;;;1.75;0.50;;;;;;;17.17;47.04;100734.69;20322972;29;19962;-94
2023/03/05 17:38:32;;;;;;;1.90;0.60;;;;;;;17.44;47.18;100775.41;20667371;23;20056;-95
2023/03/05 17:48:34;;;;;;;1.15;0.43;;;;;;;17.44;47.27;100765.50;20396121;28;20095;-86
2023/03/05 17:58:37;;;;;;;2.08;0.90;;;;;;;17.46;47.57;100762.69;20374042;29;20059;-85
2023/03/05 18:08:39;;;;;;;1.48;0.60;;;;;;;16.47;47.97;100617.03;20339228;28;20063;-87
2023/03/05 18:18:41;;;;;;;2.13;0.80;;;;;;;17.48;48.00;100756.19;20334253;29;20070;-87
2023/03/05 18:28:43;;;;;;;3.17;0.80;;;;;;;17.38;48.20;100728.41;20344336;28;20413;-89
2023/03/05 18:59:46;;;;;;;1.90;0.75;;;;;;;17.24;48.07;100665.91;20534294;23;20043;-90
2023/03/05 19:09:53;;;;;;;1.35;0.60;;;;;;;17.43;47.79;100699.22;20522232;28;20138;-89
2023/03/05 19:19:58;;;;;;;3.75;0.70;;;;;;;17.29;47.66;100683.47;20455866;28;20110;-93
2023/03/05 19:30:03;;;;;;;2.67;0.90;;;;;;;17.28;47.57;100687.16;20483169;28;20066;-94
2023/03/05 19:40:07;;;;;;;0.80;0.53;;;;;;;17.24;47.52;100679.38;20588699;28;20051;-96
2023/03/05 19:50:12;;;;;;;1.17;0.60;;;;;;;17.01;47.26;100645.59;20594547;28;20051;-96
2023/03/05 20:00:13;;;;;;;1.88;0.50;;;;;;;17.20;47.23;100656.38;20544966;28;20086;-96
2023/03/05 20:10:15;;;;;;;1.83;0.70;;;;;;;17.17;47.08;100640.53;20516141;28;20055;-91
2023/03/05 20:20:17;;;;;;;2.40;0.85;;;;;;;17.17;47.07;100640.53;20495043;29;20130;-95
2023/03/05 20:30:19;;;;;;;1.20;0.50;;;;;;;17.15;47.05;100626.38;20497742;29;20416;-96
2023/03/05 20:40:21;;;;;;;1.30;0.50;;;;;;;16.76;46.80;100542.88;20495410;28;20051;-95
2023/03/05 20:50:23;;;;;;;1.23;0.70;;;;;;;16.62;46.75;100511.88;20499459;28;20122;-96
2023/03/05 21:00:24;;;;;;;2.00;0.70;;;;;;;17.12;46.49;100583.59;20506404;28;20051;-96
2023/03/05 21:10:27;;;;;;;1.92;0.60;;;;;;;17.12;46.40;100574.69;20519854;28;20460;-95
2023/03/05 21:20:29;;;;;;;1.63;0.63;;;;;;;17.10;46.25;100558.69;20543864;28;20047;-94
2023/03/05 21:30:34;;;;;;;1.33;0.55;;;;;;;17.10;46.27;100550.63;20589422;28;20051;-96
2023/03/05 21:40:42;;;;;;;0.80;0.55;;;;;;;17.09;46.17;100539.03;20558030;28;20078;-95
2023/03/05 21:50:47;;;;;;;0.93;0.50;;;;;;;17.10;46.13;100526.41;20589234;28;20048;-96
2023/03/05 22:00:49;;;;;;;0.90;0.65;;;;;;;17.08;45.89;100517.63;20570184;28;20051;-94
2023/03/05 22:10:50;;;;;;;0.70;0.60;;;;;;;17.07;45.88;100497.97;20567415;28;20039;-96
2023/03/05 22:20:52;;;;;;;1.45;0.70;;;;;;;17.06;45.77;100482.84;20582368;28;20050;-96
2023/03/05 22:30:54;;;;;;;1.55;0.90;;;;;;;16.95;45.82;100454.19;20627043;28;20035;-96
2023/03/05 22:40:55;;;;;;;1.52;0.60;;;;;;;17.06;45.75;100455.06;20592018;28;20051;-93
2023/03/05 22:50:57;;;;;;;1.30;0.60;;;;;;;17.07;45.69;100451.38;20586720;28;20047;-95
2023/03/05 23:00:58;;;;;;;0.98;0.60;;;;;;;17.06;45.71;100430.88;20588023;28;20059;-89
2023/03/05 23:11:05;;;;;;;0.70;0.50;;;;;;;16.81;45.77;100360.53;20567943;28;20098;-89
2023/03/05 23:21:07;;;;;;;1.27;0.80;;;;;;;16.76;45.77;100352.88;20574705;28;20055;-96
2023/03/05 23:31:08;;;;;;;1.52;0.60;;;;;;;17.05;45.68;100399.59;20554205;28;20051;-96
2023/03/05 23:41:10;;;;;;;1.20;0.60;;;;;;;17.04;45.68;100389.81;20551793;28;20071;-95
2023/03/05 23:51:11;;;;;;;1.13;0.60;;;;;;;16.92;45.64;100362.19;20569606;28;20063;-95
